Time;durP1;ratioP1;P1;durP2;ratioP2;P2;SDS_P1;SDS_P2;PMS_P1;PMS_P2;Temp;Humidity;BMP_temperature;BMP_pressure;BME280_temperature;BME280_humidity;BME280_pressure;Samples;Min_cycle;Max_cycle;Signal;HPM_P1;HPM_P2
2020/12/30 00:00:49;;;;;;;48.88;36.13;;;17.30;99.90;;;;;;5072356;28;20024;-32
2020/12/30 00:03:15;;;;;;;50.00;37.20;;;17.30;99.90;;;;;;5069917;28;20093;-34
2020/12/30 00:05:41;;;;;;;41.83;32.42;;;17.30;99.90;;;;;;5073062;28;20063;-33
2020/12/30 00:08:08;;;;;;;45.55;33.40;;;17.30;99.90;;;;;;5072365;28;20048;-34
2020/12/30 00:10:34;;;;;;;43.90;32.10;;;17.20;99.90;;;;;;5075307;28;20115;-33
2020/12/30 00:13:00;;;;;;;34.17;27.88;;;17.20;99.90;;;;;;5073057;28;20021;-33
2020/12/30 00:15:26;;;;;;;37.55;30.23;;;17.20;99.90;;;;;;5076486;28;20017;-33
2020/12/30 00:17:52;;;;;;;38.50;29.33;;;17.10;99.90;;;;;;5075429;28;20032;-33
2020/12/30 00:20:20;;;;;;;34.95;27.23;;;17.10;99.90;;;;;;5075417;28;20024;-33
2020/12/30 00:22:47;;;;;;;34.47;26.65;;;17.10;99.90;;;;;;5074258;28;20378;-32
2020/12/30 00:25:14;;;;;;;35.75;26.13;;;17.00;99.90;;;;;;5075890;28;20023;-32
2020/12/30 00:27:41;;;;;;;32.67;23.95;;;17.00;99.90;;;;;;5075905;28;20103;-32
2020/12/30 00:30:11;;;;;;;31.15;23.13;;;17.00;99.90;;;;;;5075163;28;20103;-32
2020/12/30 00:32:39;;;;;;;31.85;22.30;;;17.00;99.90;;;;;;5076072;28;20025;-32
2020/12/30 00:35:05;;;;;;;31.75;23.65;;;16.90;99.90;;;;;;5075262;28;20025;-33
2020/12/30 00:37:31;;;;;;;29.48;21.67;;;16.90;99.90;;;;;;5071349;28;20066;-33
2020/12/30 00:39:57;;;;;;;27.45;19.38;;;16.90;99.90;;;;;;5076067;28;20017;-33
2020/12/30 00:42:27;;;;;;;27.73;20.50;;;16.90;99.90;;;;;;5075276;28;20365;-33
2020/12/30 00:44:53;;;;;;;27.27;19.50;;;16.90;99.90;;;;;;5071087;28;20090;-32
2020/12/30 00:47:18;;;;;;;25.42;18.95;;;16.80;99.90;;;;;;5075131;28;20032;-32
2020/12/30 00:49:44;;;;;;;28.55;19.77;;;16.80;99.90;;;;;;5075764;28;20139;-32
2020/12/30 00:52:10;;;;;;;25.02;19.58;;;16.80;99.90;;;;;;5074689;28;20353;-33
2020/12/30 00:54:36;;;;;;;23.85;17.15;;;16.70;99.90;;;;;;5074555;28;20021;-32
2020/12/30 00:57:01;;;;;;;23.73;16.15;;;16.70;99.90;;;;;;5074854;28;20024;-32
2020/12/30 00:59:27;;;;;;;18.77;14.73;;;16.70;99.90;;;;;;5074655;28;20025;-33
2020/12/30 01:01:53;;;;;;;22.48;16.35;;;16.70;99.90;;;;;;5074360;28;20024;-32
2020/12/30 01:04:20;;;;;;;21.63;15.20;;;16.60;99.90;;;;;;5073956;28;20043;-32
2020/12/30 01:06:50;;;;;;;20.08;15.30;;;16.70;99.90;;;;;;5075071;28;20085;-33
2020/12/30 01:09:16;;;;;;;25.02;15.63;;;16.70;99.90;;;;;;5075294;28;20339;-33
2020/12/30 01:11:42;;;;;;;20.92;14.98;;;16.60;99.90;;;;;;5074887;28;20020;-33
2020/12/30 01:14:08;;;;;;;17.77;13.90;;;16.60;99.90;;;;;;5075018;28;20033;-33
2020/12/30 01:16:34;;;;;;;18.95;12.68;;;16.60;99.90;;;;;;5074547;28;20040;-33
2020/12/30 01:19:00;;;;;;;14.35;11.10;;;16.60;99.90;;;;;;5074588;28;20356;-33
2020/12/30 01:21:25;;;;;;;22.40;14.98;;;16.60;99.90;;;;;;5073640;28;20417;-33
2020/12/30 01:23:51;;;;;;;17.30;12.02;;;16.60;99.90;;;;;;5073543;28;20404;-33
2020/12/30 01:26:17;;;;;;;16.20;12.30;;;16.50;99.90;;;;;;5072781;28;20024;-33
2020/12/30 01:28:43;;;;;;;17.98;12.73;;;16.60;99.90;;;;;;5074202;28;20021;-33
2020/12/30 01:31:09;;;;;;;15.75;11.77;;;16.50;99.90;;;;;;5073729;28;20402;-33
2020/12/30 01:33:34;;;;;;;16.17;12.23;;;16.50;99.90;;;;;;5073666;28;20024;-33
2020/12/30 01:36:00;;;;;;;15.57;11.05;;;16.50;99.90;;;;;;5073630;28;20062;-33
2020/12/30 01:38:26;;;;;;;15.65;11.20;;;16.50;99.90;;;;;;5073615;28;20023;-33
2020/12/30 01:40:56;;;;;;;16.15;11.50;;;16.50;99.90;;;;;;5072988;28;20471;-33
2020/12/30 01:43:22;;;;;;;19.60;12.38;;;16.50;99.90;;;;;;5073794;28;20024;-33
2020/12/30 01:45:52;;;;;;;14.73;11.63;;;16.40;99.90;;;;;;5074743;28;20025;-33
2020/12/30 01:48:21;;;;;;;15.65;11.32;;;16.40;99.90;;;;;;5073572;28;20077;-33
2020/12/30 01:50:47;;;;;;;16.42;12.15;;;16.40;99.90;;;;;;5072250;28;20485;-33
2020/12/30 01:53:14;;;;;;;11.40;8.88;;;16.40;99.90;;;;;;5073873;28;20060;-33
2020/12/30 01:55:41;;;;;;;14.82;9.77;;;16.40;99.90;;;;;;5073817;28;20020;-33
2020/12/30 01:58:11;;;;;;;16.75;11.57;;;16.40;99.90;;;;;;5073744;28;20021;-33
2020/12/30 02:00:39;;;;;;;22.08;13.05;;;16.40;99.90;;;;;;5073110;28;20075;-33
2020/12/30 02:03:08;;;;;;;16.75;11.65;;;16.40;99.90;;;;;;5071637;28;20025;-32
2020/12/30 02:05:37;;;;;;;17.38;12.18;;;16.40;99.90;;;;;;5071895;28;20048;-32
2020/12/30 02:08:05;;;;;;;20.33;12.95;;;16.30;99.90;;;;;;5071666;28;20028;-32
2020/12/30 02:10:31;;;;;;;20.23;12.90;;;16.30;99.90;;;;;;5069998;28;20036;-32
2020/12/30 02:12:58;;;;;;;18.48;12.13;;;16.30;99.90;;;;;;5072199;28;20375;-32
2020/12/30 02:15:28;;;;;;;24.05;12.88;;;16.30;99.90;;;;;;5072534;28;20047;-32
2020/12/30 02:17:56;;;;;;;21.92;12.93;;;16.30;99.90;;;;;;5071641;28;20535;-31
2020/12/30 02:20:22;;;;;;;20.05;12.80;;;16.30;99.90;;;;;;5073167;28;20024;-32
2020/12/30 02:23:09;;;;;;;18.17;12.50;;;16.30;99.90;;;;;;5072663;28;20041;-32
2020/12/30 02:25:35;;;;;;;21.15;12.63;;;16.20;99.90;;;;;;5072613;28;20028;-31
2020/12/30 02:28:00;;;;;;;19.25;12.30;;;16.20;99.90;;;;;;5073035;28;20409;-32
2020/12/30 02:30:26;;;;;;;15.57;10.68;;;16.20;99.90;;;;;;5072706;28;20056;-32
2020/12/30 02:32:52;;;;;;;17.40;9.90;;;16.20;99.90;;;;;;5073401;28;20450;-31
2020/12/30 02:35:23;;;;;;;19.75;10.10;;;16.20;99.90;;;;;;5071758;28;20082;-31
2020/12/30 02:37:50;;;;;;;13.93;9.65;;;16.20;99.90;;;;;;5072713;28;20382;-32
2020/12/30 02:40:16;;;;;;;16.30;9.70;;;16.20;99.90;;;;;;5072409;28;20077;-31
2020/12/30 02:42:42;;;;;;;13.18;7.70;;;16.20;99.90;;;;;;5071646;28;20531;-31
2020/12/30 02:45:09;;;;;;;15.02;9.32;;;16.20;99.90;;;;;;5075474;28;20028;-31
2020/12/30 02:47:35;;;;;;;12.18;8.43;;;16.10;99.90;;;;;;5072809;28;20048;-31
2020/12/30 02:50:03;;;;;;;15.90;8.40;;;16.10;99.90;;;;;;5071834;28;20025;-31
2020/12/30 02:52:29;;;;;;;14.57;7.85;;;16.10;99.90;;;;;;5072316;28;20355;-32
2020/12/30 02:54:55;;;;;;;15.18;8.05;;;16.10;99.90;;;;;;5072591;28;20024;-32
2020/12/30 02:57:21;;;;;;;12.98;7.18;;;16.10;99.90;;;;;;5072423;28;20036;-32
2020/12/30 02:59:47;;;;;;;11.35;7.20;;;16.10;99.90;;;;;;5073077;28;20012;-32
2020/12/30 03:02:13;;;;;;;15.45;7.88;;;16.10;99.90;;;;;;5072345;28;20032;-33
2020/12/30 03:04:39;;;;;;;9.88;6.50;;;16.10;99.90;;;;;;5072410;28;20039;-33
2020/12/30 03:07:05;;;;;;;11.90;6.78;;;16.10;99.90;;;;;;5066872;28;20037;-33
2020/12/30 03:09:31;;;;;;;9.15;6.30;;;16.00;99.90;;;;;;5072558;28;20031;-33
2020/12/30 03:11:57;;;;;;;13.77;7.43;;;16.00;99.90;;;;;;5068170;28;20050;-33
2020/12/30 03:14:23;;;;;;;11.85;7.10;;;16.00;99.90;;;;;;5072447;28;20032;-31
2020/12/30 03:16:49;;;;;;;10.90;6.05;;;16.00;99.90;;;;;;5072560;28;20410;-31
2020/12/30 03:19:15;;;;;;;10.18;6.65;;;16.00;99.90;;;;;;5072156;28;20025;-31
2020/12/30 03:21:41;;;;;;;9.40;6.38;;;16.00;99.90;;;;;;5070912;28;20382;-32
2020/12/30 03:24:06;;;;;;;8.35;5.25;;;16.00;99.90;;;;;;5072425;28;20032;-32
2020/12/30 03:26:34;;;;;;;10.05;6.47;;;16.00;99.90;;;;;;5071820;28;20067;-32
2020/12/30 03:29:01;;;;;;;7.00;5.25;;;16.00;99.90;;;;;;5072172;28;20023;-32
2020/12/30 03:31:28;;;;;;;10.50;5.38;;;16.00;99.90;;;;;;5072099;28;20047;-32
2020/12/30 03:33:55;;;;;;;9.88;5.03;;;15.90;99.90;;;;;;5072444;28;20031;-32
2020/12/30 03:36:21;;;;;;;7.72;5.13;;;16.00;99.90;;;;;;5072922;28;20738;-34
2020/12/30 03:38:47;;;;;;;9.63;5.10;;;16.00;99.90;;;;;;5072286;28;20043;-33
2020/12/30 03:41:13;;;;;;;9.50;5.93;;;16.00;99.90;;;;;;5072357;28;20477;-33
2020/12/30 03:43:38;;;;;;;5.53;4.30;;;16.00;99.90;;;;;;5072297;28;20069;-32
2020/12/30 03:46:04;;;;;;;8.00;4.35;;;15.90;99.90;;;;;;5072514;28;20025;-32
2020/12/30 03:48:30;;;;;;;9.40;4.78;;;15.90;99.90;;;;;;5072145;28;20386;-32
2020/12/30 03:50:56;;;;;;;7.60;4.38;;;16.00;99.90;;;;;;5072278;28;20039;-32
2020/12/30 03:53:22;;;;;;;10.95;4.63;;;15.90;99.90;;;;;;5072104;28;20017;-32
2020/12/30 03:55:47;;;;;;;6.75;4.82;;;15.90;99.90;;;;;;5071880;28;20019;-32
2020/12/30 03:58:13;;;;;;;7.07;4.97;;;15.90;99.90;;;;;;5068109;28;20451;-32
2020/12/30 04:00:39;;;;;;;7.13;4.47;;;15.90;99.90;;;;;;5071605;28;20074;-32
2020/12/30 04:03:05;;;;;;;6.78;4.15;;;15.90;99.90;;;;;;5071531;28;20451;-32
2020/12/30 04:05:31;;;;;;;6.85;4.28;;;15.80;99.90;;;;;;5071198;28;20086;-32
2020/12/30 04:07:56;;;;;;;6.75;4.35;;;15.80;99.90;;;;;;5071841;28;20036;-32
2020/12/30 04:10:22;;;;;;;8.18;5.05;;;15.80;99.90;;;;;;5070440;28;20028;-32
2020/12/30 04:12:48;;;;;;;7.72;5.22;;;15.80;99.90;;;;;;5072052;28;20354;-32
2020/12/30 04:15:14;;;;;;;7.88;4.30;;;15.80;99.90;;;;;;5072461;28;20482;-32
2020/12/30 04:17:40;;;;;;;6.50;4.88;;;15.90;99.90;;;;;;5072274;28;20078;-32
2020/12/30 04:20:05;;;;;;;7.00;4.50;;;15.80;99.90;;;;;;5071596;28;20741;-32
2020/12/30 04:22:31;;;;;;;5.63;4.15;;;15.80;99.90;;;;;;5071959;28;20032;-32
2020/12/30 04:24:57;;;;;;;10.68;5.55;;;15.80;99.90;;;;;;5071842;28;20383;-33
2020/12/30 04:27:23;;;;;;;6.00;4.60;;;15.80;99.90;;;;;;5067586;28;20029;-33
2020/12/30 04:29:49;;;;;;;6.25;4.22;;;15.80;99.90;;;;;;5068336;28;20025;-32
2020/12/30 04:32:14;;;;;;;8.52;4.43;;;15.80;99.90;;;;;;5072436;28;20051;-32
2020/12/30 04:34:40;;;;;;;9.13;5.47;;;15.80;99.90;;;;;;5071547;28;20556;-32
2020/12/30 04:37:06;;;;;;;6.53;4.53;;;15.80;99.90;;;;;;5071592;28;20044;-32
2020/12/30 04:39:32;;;;;;;6.88;4.15;;;15.80;99.90;;;;;;5070607;28;20020;-32
2020/12/30 04:42:00;;;;;;;10.25;4.43;;;15.80;99.90;;;;;;5074853;28;20032;-32
2020/12/30 04:44:32;;;;;;;9.02;3.88;;;15.80;99.90;;;;;;5075488;28;20111;-32
2020/12/30 04:46:59;;;;;;;8.10;4.47;;;15.80;99.90;;;;;;5075104;28;20056;-32
2020/12/30 04:49:25;;;;;;;6.10;4.00;;;15.70;99.90;;;;;;5075098;28;20406;-32
2020/12/30 04:51:53;;;;;;;6.25;3.95;;;15.80;99.90;;;;;;5075036;28;20039;-33
2020/12/30 04:54:23;;;;;;;6.68;3.80;;;15.70;99.90;;;;;;5075134;28;20028;-32
2020/12/30 04:57:23;;;;;;;8.68;4.57;;;15.70;99.90;;;;;;5074490;28;20036;-32
2020/12/30 04:59:52;;;;;;;7.63;4.40;;;15.70;99.90;;;;;;5065627;28;20548;-32
2020/12/30 05:02:27;;;;;;;5.72;3.30;;;15.80;99.90;;;;;;5073893;28;20558;-32
2020/12/30 05:04:56;;;;;;;6.18;3.50;;;15.70;99.90;;;;;;5074591;28;20035;-32
2020/12/30 05:07:26;;;;;;;7.45;3.40;;;15.70;99.90;;;;;;5074276;28;20763;-32
2020/12/30 05:09:52;;;;;;;5.05;3.25;;;15.70;99.90;;;;;;5066770;28;20028;-32
2020/12/30 05:12:20;;;;;;;8.35;3.20;;;15.70;99.90;;;;;;5070388;28;20036;-33
2020/12/30 05:14:46;;;;;;;5.72;3.05;;;15.70;99.90;;;;;;5074863;28;20020;-32
2020/12/30 05:17:13;;;;;;;7.22;3.85;;;15.70;99.90;;;;;;5074657;28;20102;-32
2020/12/30 05:19:41;;;;;;;6.55;2.97;;;15.60;99.90;;;;;;5074850;28;20100;-32
2020/12/30 05:22:13;;;;;;;6.55;3.53;;;15.70;99.90;;;;;;5074820;28;20047;-32
2020/12/30 05:24:39;;;;;;;4.72;3.03;;;15.60;99.90;;;;;;5074151;28;20036;-32
2020/12/30 05:27:05;;;;;;;6.32;3.10;;;15.60;99.90;;;;;;5074497;28;20041;-32
2020/12/30 05:29:31;;;;;;;4.25;2.13;;;15.60;99.90;;;;;;5074576;28;20028;-32
2020/12/30 05:31:57;;;;;;;3.22;2.38;;;15.60;99.90;;;;;;5074815;28;20093;-34
2020/12/30 05:34:24;;;;;;;4.40;2.85;;;15.60;99.90;;;;;;5074239;28;20025;-32
2020/12/30 05:36:52;;;;;;;4.53;2.95;;;15.60;99.90;;;;;;5073093;28;20036;-34
2020/12/30 05:39:28;;;;;;;4.35;2.47;;;15.60;99.90;;;;;;5073998;28;20024;-34
2020/12/30 05:42:18;;;;;;;6.65;2.97;;;15.60;99.90;;;;;;5074354;28;20153;-34
2020/12/30 05:44:46;;;;;;;6.35;2.80;;;15.60;99.90;;;;;;5072533;28;20028;-34
2020/12/30 05:47:26;;;;;;;4.95;2.53;;;15.60;99.90;;;;;;5072549;28;20170;-34
2020/12/30 05:49:53;;;;;;;4.95;2.30;;;15.50;99.90;;;;;;5074046;28;20103;-34
2020/12/30 05:52:24;;;;;;;4.32;2.80;;;15.50;99.90;;;;;;5067859;28;20075;-34
2020/12/30 05:55:01;;;;;;;4.78;2.45;;;15.50;99.90;;;;;;5074245;28;20352;-34
2020/12/30 05:57:35;;;;;;;3.50;2.55;;;15.50;99.90;;;;;;5072894;28;20028;-34
2020/12/30 06:00:03;;;;;;;3.75;2.78;;;15.50;99.90;;;;;;5073378;28;20077;-34
2020/12/30 06:02:31;;;;;;;5.85;2.95;;;15.50;99.90;;;;;;5073800;28;20374;-34
2020/12/30 06:05:10;;;;;;;4.63;2.50;;;15.50;99.90;;;;;;5073794;28;20025;-34
2020/12/30 06:07:40;;;;;;;6.97;2.97;;;15.50;99.90;;;;;;5082086;28;20068;-33
2020/12/30 06:10:09;;;;;;;5.03;2.25;;;15.50;99.90;;;;;;5073825;28;20147;-34
2020/12/30 06:12:49;;;;;;;7.75;2.63;;;15.50;99.90;;;;;;5071042;28;20382;-33
2020/12/30 06:15:19;;;;;;;4.88;2.38;;;15.50;99.90;;;;;;5071712;28;20020;-34
2020/12/30 06:18:05;;;;;;;6.18;3.05;;;15.50;99.90;;;;;;5073430;28;20024;-34
2020/12/30 06:20:41;;;;;;;8.90;2.85;;;15.40;99.90;;;;;;5069883;28;20407;-33
2020/12/30 06:23:09;;;;;;;4.70;2.80;;;15.50;99.90;;;;;;5071099;28;20024;-33
2020/12/30 06:25:43;;;;;;;6.47;2.72;;;15.40;99.90;;;;;;5073479;28;20135;-34
2020/12/30 06:28:14;;;;;;;6.57;2.58;;;15.40;99.90;;;;;;5073086;28;20021;-34
2020/12/30 06:30:42;;;;;;;7.20;3.10;;;15.40;99.90;;;;;;5073048;28;20175;-34
2020/12/30 06:33:08;;;;;;;;;;;15.40;99.90;;;;;;5069847;28;20367;-34
2020/12/30 06:35:36;;;;;;;5.55;2.72;;;15.40;99.90;;;;;;5073512;28;19912;-34
2020/12/30 06:38:29;;;;;;;4.68;2.50;;;15.40;99.90;;;;;;5073116;28;20103;-34
2020/12/30 06:41:06;;;;;;;4.95;2.97;;;15.40;99.90;;;;;;5073082;28;20390;-34
2020/12/30 06:43:43;;;;;;;5.18;2.58;;;15.40;99.90;;;;;;5073021;28;20323;-31
2020/12/30 06:46:12;;;;;;;7.10;3.40;;;15.40;99.90;;;;;;5072563;28;20051;-33
2020/12/30 06:49:01;;;;;;;7.95;3.90;;;15.40;99.90;;;;;;5087072;28;20036;-33
2020/12/30 06:51:34;;;;;;;6.45;3.70;;;15.40;99.90;;;;;;5072796;28;20385;-33
2020/12/30 06:54:01;;;;;;;8.00;3.33;;;15.40;99.90;;;;;;5072733;28;20020;-33
2020/12/30 06:56:39;;;;;;;6.90;3.15;;;15.40;99.90;;;;;;5072830;28;20383;-33
2020/12/30 06:59:09;;;;;;;7.72;2.95;;;15.30;99.90;;;;;;5073268;28;20497;-33
2020/12/30 07:01:56;;;;;;;7.00;3.15;;;15.30;99.90;;;;;;5072209;28;20036;-33
2020/12/30 07:04:23;;;;;;;4.75;3.17;;;15.30;99.90;;;;;;5057003;28;20049;-33
2020/12/30 07:06:49;;;;;;;6.05;2.92;;;15.30;99.90;;;;;;5067962;28;20465;-33
2020/12/30 07:09:15;;;;;;;6.57;3.42;;;15.30;99.90;;;;;;5072626;28;20048;-33
2020/12/30 07:11:54;;;;;;;7.75;3.97;;;15.20;99.90;;;;;;5072002;28;20060;-33
2020/12/30 07:14:24;;;;;;;26.55;15.13;;;15.30;99.90;;;;;;5072344;28;20531;-33
2020/12/30 07:17:00;;;;;;;32.97;21.13;;;15.30;99.90;;;;;;5071778;28;20058;-33
2020/12/30 07:19:28;;;;;;;28.48;18.23;;;15.30;99.90;;;;;;5072529;28;20024;-33
2020/12/30 07:22:07;;;;;;;21.85;14.63;;;15.40;99.90;;;;;;5071916;28;20374;-34
2020/12/30 07:24:48;;;;;;;19.35;12.85;;;15.40;99.90;;;;;;5071882;28;20798;-33
2020/12/30 07:27:16;;;;;;;14.25;10.77;;;15.50;99.90;;;;;;5072199;28;20059;-33
2020/12/30 07:29:46;;;;;;;15.63;10.07;;;15.50;99.90;;;;;;5071411;28;20051;-33
2020/12/30 07:32:14;;;;;;;16.23;8.38;;;15.50;99.90;;;;;;5071554;28;20055;-33
2020/12/30 07:34:42;;;;;;;16.83;8.55;;;15.50;99.90;;;;;;5071105;28;20021;-33
2020/12/30 07:37:08;;;;;;;14.70;6.65;;;15.60;99.90;;;;;;5072420;28;20020;-32
2020/12/30 07:39:39;;;;;;;13.40;6.72;;;15.60;99.90;;;;;;5072511;28;20025;-32
2020/12/30 07:42:07;;;;;;;13.35;6.55;;;15.60;99.90;;;;;;5072329;28;20126;-32
2020/12/30 07:44:33;;;;;;;9.75;6.00;;;15.70;99.90;;;;;;5071890;28;20514;-33
2020/12/30 07:47:04;;;;;;;10.40;5.60;;;15.70;99.90;;;;;;5071722;28;20032;-34
2020/12/30 07:49:30;;;;;;;8.23;5.40;;;15.70;99.90;;;;;;5072033;28;20162;-33
2020/12/30 07:51:58;;;;;;;10.93;7.20;;;15.80;99.90;;;;;;5072017;28;20496;-33
2020/12/30 07:54:25;;;;;;;11.52;6.35;;;15.80;99.90;;;;;;5072084;28;20043;-33
2020/12/30 07:56:52;;;;;;;15.23;5.93;;;15.80;99.90;;;;;;5071456;28;20029;-32
2020/12/30 07:59:27;;;;;;;10.65;5.43;;;15.80;99.90;;;;;;5071756;28;20024;-32
2020/12/30 08:01:58;;;;;;;12.50;5.40;;;15.90;99.90;;;;;;5071224;28;20486;-34
2020/12/30 08:04:24;;;;;;;10.25;5.25;;;15.90;99.90;;;;;;5071704;28;20081;-33
2020/12/30 08:06:50;;;;;;;11.05;5.57;;;15.90;99.90;;;;;;5071707;28;20021;-33
2020/12/30 08:09:17;;;;;;;28.00;18.80;;;15.90;99.90;;;;;;5070877;28;20029;-32
2020/12/30 08:12:00;;;;;;;31.77;21.63;;;15.90;99.90;;;;;;5070209;28;20367;-32
2020/12/30 08:14:28;;;;;;;44.35;27.42;;;15.90;99.90;;;;;;5073741;28;20159;-32
2020/12/30 08:17:04;;;;;;;52.15;35.35;;;15.90;99.90;;;;;;5075293;28;20052;-32
2020/12/30 08:19:37;;;;;;;62.33;43.55;;;16.00;99.90;;;;;;5071760;28;20099;-32
2020/12/30 08:22:14;;;;;;;63.17;42.53;;;16.00;99.90;;;;;;5075323;28;20029;-31
2020/12/30 08:24:47;;;;;;;49.90;36.47;;;16.10;99.90;;;;;;5075035;28;20024;-32
2020/12/30 08:27:15;;;;;;;47.83;36.00;;;16.00;99.90;;;;;;5070391;28;20033;-32
2020/12/30 08:29:41;;;;;;;;;;;16.10;99.90;;;;;;5076162;28;20055;-33
2020/12/30 08:32:24;;;;;;;41.97;27.63;;;16.00;99.90;;;;;;5074755;28;19924;-33
2020/12/30 08:34:56;;;;;;;37.20;25.40;;;16.10;99.90;;;;;;5075262;28;20123;-33
2020/12/30 08:37:26;;;;;;;40.70;26.33;;;16.10;99.90;;;;;;5074182;28;20024;-33
2020/12/30 08:40:13;;;;;;;30.30;22.60;;;16.20;99.90;;;;;;5075627;28;20020;-35
2020/12/30 08:43:03;;;;;;;28.67;20.33;;;16.20;99.90;;;;;;5074896;28;20024;-34
2020/12/30 08:45:38;;;;;;;27.98;19.95;;;16.20;99.90;;;;;;5069979;28;20032;-36
2020/12/30 08:48:17;;;;;;;23.42;16.70;;;16.20;99.90;;;;;;5073424;28;20040;-32
2020/12/30 08:50:44;;;;;;;25.95;16.40;;;16.20;99.90;;;;;;5073239;28;20056;-35
2020/12/30 08:53:11;;;;;;;31.67;21.70;;;16.20;99.90;;;;;;5075435;28;20079;-34
2020/12/30 08:55:38;;;;;;;39.22;29.33;;;16.30;99.90;;;;;;5073483;28;20370;-32
2020/12/30 08:58:04;;;;;;;43.63;28.45;;;16.30;99.90;;;;;;5074039;28;20020;-32
2020/12/30 09:00:37;;;;;;;41.97;32.83;;;16.30;99.90;;;;;;5074871;28;20024;-33
2020/12/30 09:03:13;;;;;;;32.17;21.70;;;16.30;99.90;;;;;;5074524;28;20073;-32
2020/12/30 09:05:40;;;;;;;31.23;22.35;;;16.10;99.90;;;;;;5074717;28;20013;-32
2020/12/30 09:08:15;;;;;;;29.35;20.25;;;16.10;99.90;;;;;;5074250;28;20028;-32
2020/12/30 09:10:42;;;;;;;29.08;18.30;;;16.30;99.90;;;;;;5074242;28;20021;-32
2020/12/30 09:13:16;;;;;;;22.48;14.95;;;16.30;99.90;;;;;;5072548;28;20027;-32
2020/12/30 09:15:43;;;;;;;21.45;14.35;;;16.40;99.90;;;;;;5075099;28;20366;-32
2020/12/30 09:18:11;;;;;;;20.23;13.45;;;16.40;99.90;;;;;;5074066;28;20099;-33
2020/12/30 09:20:37;;;;;;;;;;;16.40;99.90;;;;;;5074464;28;20035;-35
2020/12/30 09:23:04;;;;;;;16.70;10.70;;;16.40;99.90;;;;;;5073007;28;19908;-32
2020/12/30 09:25:32;;;;;;;15.57;10.60;;;16.50;99.90;;;;;;5073817;28;20029;-34
2020/12/30 09:27:59;;;;;;;18.73;11.43;;;16.60;99.90;;;;;;5073373;28;20032;-34
2020/12/30 09:30:26;;;;;;;15.25;11.18;;;16.60;99.90;;;;;;5071817;28;20044;-33
2020/12/30 09:33:09;;;;;;;19.17;10.43;;;16.60;99.90;;;;;;5073658;28;20028;-32
2020/12/30 09:35:35;;;;;;;16.42;9.38;;;16.50;99.90;;;;;;5073902;28;20382;-34
2020/12/30 09:38:01;;;;;;;15.40;9.50;;;16.60;99.90;;;;;;5073607;28;20020;-33
2020/12/30 09:40:27;;;;;;;11.13;8.07;;;16.70;99.90;;;;;;5073695;28;20119;-33
2020/12/30 09:43:07;;;;;;;14.77;8.95;;;16.70;99.90;;;;;;5074197;28;20021;-33
2020/12/30 09:45:33;;;;;;;17.70;9.15;;;16.60;99.90;;;;;;5073475;28;20059;-33
2020/12/30 09:48:10;;;;;;;16.90;8.15;;;16.60;99.90;;;;;;5073813;28;20060;-33
2020/12/30 09:50:36;;;;;;;9.55;5.63;;;16.40;99.90;;;;;;5072247;28;20074;-34
2020/12/30 09:53:03;;;;;;;10.35;6.07;;;16.20;99.90;;;;;;5072925;28;20020;-34
2020/12/30 09:55:28;;;;;;;10.02;5.00;;;16.20;99.90;;;;;;5072024;28;20406;-34
2020/12/30 09:57:55;;;;;;;9.82;6.60;;;16.10;99.90;;;;;;5071389;28;20028;-34
2020/12/30 10:00:21;;;;;;;10.98;6.70;;;16.10;99.90;;;;;;5072892;28;20068;-34
2020/12/30 10:02:46;;;;;;;9.02;5.38;;;16.10;99.90;;;;;;5073845;28;20194;-33
2020/12/30 10:05:12;;;;;;;11.25;4.93;;;16.10;99.90;;;;;;5072716;28;20032;-33
2020/12/30 10:07:38;;;;;;;8.80;4.60;;;15.90;99.90;;;;;;5072475;28;20036;-33
2020/12/30 10:10:04;;;;;;;8.48;4.43;;;15.90;99.90;;;;;;5073456;28;20066;-34
2020/12/30 10:12:30;;;;;;;6.50;3.83;;;16.00;99.90;;;;;;5069439;28;20028;-33
2020/12/30 10:14:56;;;;;;;7.88;4.13;;;15.90;99.90;;;;;;5070099;28;20020;-33
2020/12/30 10:17:22;;;;;;;8.23;3.95;;;15.90;99.90;;;;;;5072867;28;20025;-34
2020/12/30 10:19:48;;;;;;;7.93;3.45;;;15.90;99.90;;;;;;5073153;28;20027;-33
2020/12/30 10:22:14;;;;;;;6.18;3.20;;;15.90;99.90;;;;;;5073044;28;20119;-34
2020/12/30 10:24:44;;;;;;;6.28;2.83;;;15.80;99.90;;;;;;5069493;28;20489;-34
2020/12/30 10:27:11;;;;;;;8.02;2.95;;;15.80;99.90;;;;;;5073204;28;20035;-34
2020/12/30 10:29:37;;;;;;;8.05;2.97;;;15.70;99.90;;;;;;5073205;28;20025;-33
2020/12/30 10:32:03;;;;;;;6.32;3.38;;;15.70;99.90;;;;;;5071302;28;20407;-33
2020/12/30 10:34:29;;;;;;;5.88;3.05;;;15.70;99.90;;;;;;5070754;28;20135;-33
2020/12/30 10:36:55;;;;;;;8.30;2.72;;;15.80;99.90;;;;;;5071097;28;20016;-34
2020/12/30 10:39:20;;;;;;;5.05;2.50;;;15.90;99.90;;;;;;5072783;28;20024;-34
2020/12/30 10:41:46;;;;;;;6.40;2.67;;;16.00;99.90;;;;;;5072716;28;20029;-34
2020/12/30 10:44:12;;;;;;;6.82;3.20;;;15.90;99.90;;;;;;5071189;28;20482;-34
2020/12/30 10:46:38;;;;;;;5.50;2.92;;;16.10;99.90;;;;;;5073138;28;20028;-35
2020/12/30 10:49:04;;;;;;;7.50;2.90;;;16.20;99.90;;;;;;5072886;28;20162;-34
2020/12/30 10:51:29;;;;;;;8.48;3.13;;;16.10;99.90;;;;;;5070969;28;20067;-34
2020/12/30 10:53:55;;;;;;;11.88;2.70;;;16.20;99.90;;;;;;5072854;28;20066;-34
2020/12/30 10:56:21;;;;;;;5.50;2.72;;;16.40;99.90;;;;;;5072663;28;20557;-34
2020/12/30 10:58:47;;;;;;;9.32;3.08;;;16.50;99.90;;;;;;5072343;28;20397;-34
2020/12/30 11:01:14;;;;;;;6.22;3.28;;;16.70;99.90;;;;;;5072702;28;20024;-34
2020/12/30 11:03:41;;;;;;;6.25;3.20;;;16.90;99.90;;;;;;5072548;28;20026;-34
2020/12/30 11:06:08;;;;;;;8.82;2.97;;;17.10;99.90;;;;;;5073102;28;20012;-34
2020/12/30 11:08:34;;;;;;;10.85;3.15;;;17.00;99.90;;;;;;5072541;28;20036;-33
2020/12/30 11:11:02;;;;;;;7.88;3.10;;;17.20;99.90;;;;;;5069017;28;20796;-33
2020/12/30 11:13:28;;;;;;;8.15;2.92;;;17.20;99.90;;;;;;5070723;28;20151;-33
2020/12/30 11:15:54;;;;;;;6.63;3.20;;;17.20;99.90;;;;;;5072168;28;20143;-33
2020/12/30 11:18:21;;;;;;;5.38;2.95;;;17.40;99.90;;;;;;5068968;28;20032;-32
2020/12/30 11:20:48;;;;;;;6.50;2.80;;;17.70;99.90;;;;;;5072087;28;20021;-33
2020/12/30 11:23:14;;;;;;;9.13;3.37;;;18.00;99.90;;;;;;5070018;28;20025;-33
2020/12/30 11:25:46;;;;;;;10.63;3.35;;;18.20;99.90;;;;;;5071436;28;20249;-33
2020/12/30 11:28:13;;;;;;;8.27;3.33;;;18.10;99.90;;;;;;5085872;28;20027;-35
2020/12/30 11:30:40;;;;;;;8.35;3.70;;;18.30;99.90;;;;;;5087300;28;20433;-35
2020/12/30 11:33:06;;;;;;;8.45;3.53;;;18.50;99.90;;;;;;5067360;28;20028;-35
2020/12/30 11:35:32;;;;;;;7.63;3.25;;;18.70;99.90;;;;;;5070958;28;20025;-35
2020/12/30 11:37:58;;;;;;;6.85;3.70;;;18.90;99.90;;;;;;5071980;28;20096;-34
2020/12/30 11:40:26;;;;;;;7.80;3.22;;;19.10;99.90;;;;;;5072032;28;20045;-33
2020/12/30 11:42:52;;;;;;;7.47;3.47;;;19.30;99.90;;;;;;5072233;28;20021;-33
2020/12/30 11:45:18;;;;;;;7.53;3.57;;;19.50;99.90;;;;;;5072035;28;20445;-35
2020/12/30 11:47:44;;;;;;;6.40;2.85;;;19.40;99.90;;;;;;5071848;28;20390;-35
2020/12/30 11:50:10;;;;;;;6.53;3.50;;;19.50;99.90;;;;;;5076236;28;20158;-35
2020/12/30 11:52:36;;;;;;;5.65;3.35;;;19.80;99.90;;;;;;5076254;28;20029;-34
2020/12/30 11:55:02;;;;;;;7.13;3.78;;;20.00;99.90;;;;;;5076401;28;20021;-33
2020/12/30 11:57:28;;;;;;;5.78;2.90;;;20.20;99.90;;;;;;5076019;28;20024;-33
2020/12/30 11:59:54;;;;;;;4.63;2.85;;;20.10;99.90;;;;;;5075898;28;20028;-33
2020/12/30 12:02:20;;;;;;;5.97;2.78;;;20.20;99.90;;;;;;5076020;28;20078;-34
2020/12/30 12:04:46;;;;;;;7.03;2.53;;;20.10;99.90;;;;;;5075564;28;20402;-33
2020/12/30 12:07:12;;;;;;;4.68;2.90;;;20.20;99.90;;;;;;5074402;28;20416;-34
2020/12/30 12:09:38;;;;;;;6.50;2.80;;;20.30;99.90;;;;;;5075687;28;20107;-33
2020/12/30 12:12:04;;;;;;;4.45;2.85;;;20.40;99.90;;;;;;5069879;28;20047;-33
2020/12/30 12:14:30;;;;;;;7.68;3.13;;;20.70;99.90;;;;;;5075098;28;20103;-34
2020/12/30 12:16:58;;;;;;;10.75;3.33;;;21.70;99.90;;;;;;5075900;28;20028;-34
2020/12/30 12:19:24;;;;;;;5.57;3.58;;;22.60;99.90;;;;;;5075706;28;21260;-32
2020/12/30 12:21:51;;;;;;;7.65;3.33;;;22.70;99.90;;;;;;5075648;28;20428;-32
2020/12/30 12:24:18;;;;;;;5.57;3.97;;;22.50;99.90;;;;;;5075908;28;20499;-34
2020/12/30 12:26:44;;;;;;;4.95;2.60;;;22.20;99.90;;;;;;5075160;28;20359;-35
2020/12/30 12:29:35;;;;;;;6.63;3.35;;;21.90;99.90;;;;;;5075621;28;20033;-33
2020/12/30 12:32:09;;;;;;;10.85;4.20;;;21.70;99.90;;;;;;5073477;28;20116;-33
2020/12/30 12:34:37;;;;;;;11.77;2.90;;;21.50;99.90;;;;;;5075419;28;20056;-33
2020/12/30 12:37:05;;;;;;;7.78;2.53;;;21.40;99.90;;;;;;5071591;28;20048;-34
2020/12/30 12:39:35;;;;;;;10.25;4.25;;;21.30;99.90;;;;;;5075714;28;20086;-35
2020/12/30 12:42:02;;;;;;;10.23;3.78;;;21.30;99.90;;;;;;5075182;28;20031;-35
2020/12/30 12:44:29;;;;;;;9.10;5.13;;;21.20;99.90;;;;;;5075498;28;20025;-35